»·PEaware :: DAL1194 KPDX-KSFO

DAL1194 :: KPDX-KSFO

FLIGHT INFORMATION

Flight Status: Arrived
Operator:
Delta Air Lines
More flights by this operator :: More flights under this callsign
Pilot: Mike C. (16705)
Aircraft: MCDONNELL-DOUGLAS MD-88
(MD88)
More flights by this aircraft type
Origin: KPDX Portland Intl
United States
Destination: KSFO San Francisco Intl
United States
More flights between these airports :: More routes between these airports
Route: MINNE5 FAMUK Q3 FOWND MLBEC BDEGA2
File this flight plan on PilotEdge
Remarks: PBN / A1B2 DOF / 180905 REG / N882SB EET / KZOA0040 OPR / DAL PER / C RMK / TCAS SIMBRIEF
Altitude:
(Current/Filed)
35,000ft
Speed:
(Current/Filed)
447kts
Departed: 05-Sep-18 04:26 PM
Arrived: 05-Sep-18 06:00 PM
Distance/Time
Traveled:
478nm/1:34
Distance/Time
To Go:
Arrived

Flight Plot

Page will automatically refresh every two minutes.


Map Options




Map Legend


Flown Route
Filed Route
Departure Airport
Arrival Airport
Navaid (VOR, NDB)
Fix

Horizontal Profiles

Position Reports

Time Latitude Longitude Heading Altitude Ground
Speed
05-Sep-18 16:01 45.591446 -122.594648 228 35ft 0kts
05-Sep-18 16:02 45.591446 -122.594648 228 35ft 0kts
05-Sep-18 16:03 45.591446 -122.594648 228 35ft 0kts
05-Sep-18 16:04 45.591446 -122.594648 228 35ft 0kts
05-Sep-18 16:05 45.591446 -122.594648 228 35ft 0kts
05-Sep-18 16:06 45.591446 -122.594648 228 35ft 0kts
05-Sep-18 16:07 45.591446 -122.594648 228 35ft 0kts
05-Sep-18 16:08 45.591446 -122.594648 228 35ft 0kts
05-Sep-18 16:08 45.591446 -122.594648 228 35ft 0kts
05-Sep-18 16:09 45.591446 -122.594648 228 35ft 0kts
05-Sep-18 16:10 45.591446 -122.594648 228 35ft 0kts
05-Sep-18 16:12 45.591446 -122.594648 228 35ft 0kts
05-Sep-18 16:13 45.591446 -122.594648 228 35ft 0kts
05-Sep-18 16:13 45.591446 -122.594648 228 35ft 0kts
05-Sep-18 16:14 45.591446 -122.594648 228 35ft 0kts
05-Sep-18 16:15 45.591668 -122.594279 232 35ft 2kts
05-Sep-18 16:16 45.591622 -122.593751 303 35ft 0kts
05-Sep-18 16:17 45.591622 -122.593751 303 35ft 0kts
05-Sep-18 16:18 45.591622 -122.593751 303 35ft 0kts
05-Sep-18 16:19 45.592039 -122.594442 313 35ft 10kts
05-Sep-18 16:20 45.591545 -122.599179 240 35ft 8kts
05-Sep-18 16:21 45.589541 -122.601662 150 35ft 14kts
05-Sep-18 16:22 45.586541 -122.596112 118 35ft 22kts
05-Sep-18 16:23 45.583313 -122.587946 120 35ft 19kts
05-Sep-18 16:24 45.581535 -122.583658 153 35ft 5kts
05-Sep-18 16:25 45.581422 -122.583604 167 35ft 0kts
05-Sep-18 16:26 45.580917 -122.583819 214 35ft 9kts
05-Sep-18 16:27 45.586506 -122.599178 300 36ft 134kts
05-Sep-18 16:28 45.608805 -122.653545 302 1001ft 209kts
05-Sep-18 16:29 45.642245 -122.730563 298 3495ft 242kts
05-Sep-18 16:30 45.672613 -122.820827 274 6214ft 264kts
05-Sep-18 16:31 45.646081 -122.916477 218 9104ft 270kts
05-Sep-18 16:32 45.573261 -122.930928 182 11919ft 269kts
05-Sep-18 16:33 45.499628 -122.937007 185 14240ft 273kts
05-Sep-18 16:34 45.424062 -122.945365 185 14065ft 276kts
05-Sep-18 16:35 45.339273 -122.955167 185 14979ft 324kts
05-Sep-18 16:36 45.247404 -122.965842 185 15270ft 349kts
05-Sep-18 16:37 45.148599 -122.985679 190 17189ft 365kts
05-Sep-18 16:38 45.047089 -123.009421 190 19070ft 375kts
05-Sep-18 16:39 44.943130 -123.033499 190 20731ft 385kts
05-Sep-18 16:40 44.873995 -123.049506 190 21717ft 391kts
05-Sep-18 16:41 44.774781 -123.072477 190 22993ft 400kts
05-Sep-18 16:42 44.664076 -123.098108 190 24252ft 409kts
05-Sep-18 16:43 44.551354 -123.124213 190 25385ft 417kts
05-Sep-18 16:44 44.434936 -123.134349 179 26430ft 427kts
05-Sep-18 16:45 44.315583 -123.129409 180 27373ft 433kts
05-Sep-18 16:46 44.194577 -123.125173 180 28216ft 439kts
05-Sep-18 16:47 44.072047 -123.120923 180 28959ft 445kts
05-Sep-18 16:48 44.049031 -123.120125 180 29087ft 446kts
05-Sep-18 16:49 44.049031 -123.120125 180 29087ft 446kts
05-Sep-18 16:50 44.049031 -123.120125 180 29087ft 446kts
05-Sep-18 16:51 43.978573 -123.117682 180 29457ft 449kts
05-Sep-18 16:52 43.855077 -123.113397 180 30055ft 452kts
05-Sep-18 16:53 43.729634 -123.109043 180 30723ft 452kts
05-Sep-18 16:54 43.604430 -123.104697 180 31377ft 451kts
05-Sep-18 16:55 43.479572 -123.100367 180 32002ft 450kts
05-Sep-18 16:56 43.354755 -123.096039 180 32580ft 449kts
05-Sep-18 16:57 43.230252 -123.091720 180 33082ft 449kts
05-Sep-18 16:58 43.106120 -123.087413 180 33523ft 448kts
05-Sep-18 16:59 42.982333 -123.083041 181 33994ft 445kts
05-Sep-18 17:00 42.862175 -123.078854 184 34892ft 429kts
05-Sep-18 17:01 42.743699 -123.074834 184 34955ft 427kts
05-Sep-18 17:03 42.625338 -123.070732 184 34954ft 427kts
05-Sep-18 17:04 42.506665 -123.066618 184 34954ft 428kts
05-Sep-18 17:05 42.388120 -123.063275 184 34953ft 427kts
05-Sep-18 17:06 42.269250 -123.059482 184 34952ft 428kts
05-Sep-18 17:07 42.150650 -123.055633 184 34952ft 428kts
05-Sep-18 17:08 42.032139 -123.051787 184 34955ft 428kts
05-Sep-18 17:09 41.913783 -123.047944 184 34922ft 428kts
05-Sep-18 17:10 41.797024 -123.044152 184 34957ft 428kts
05-Sep-18 17:11 41.678469 -123.040302 184 34972ft 428kts
05-Sep-18 17:12 41.559771 -123.036445 184 34971ft 428kts
05-Sep-18 17:13 41.441083 -123.032591 184 34971ft 428kts
05-Sep-18 17:14 41.322341 -123.028856 184 34971ft 427kts
05-Sep-18 17:15 41.203827 -123.025803 184 34970ft 428kts
05-Sep-18 17:16 41.085249 -123.022303 184 34960ft 429kts
05-Sep-18 17:17 40.964818 -123.018735 184 34901ft 439kts
05-Sep-18 17:18 40.844792 -123.015185 184 34888ft 442kts
05-Sep-18 17:19 40.722389 -123.011557 184 34890ft 441kts
05-Sep-18 17:20 40.600284 -123.007941 184 34890ft 441kts
05-Sep-18 17:21 40.477804 -123.004306 184 34889ft 441kts
05-Sep-18 17:22 40.355387 -123.000678 184 34889ft 441kts
05-Sep-18 17:23 40.233351 -122.997058 184 34899ft 441kts
05-Sep-18 17:24 40.111040 -122.993434 184 34911ft 441kts
05-Sep-18 17:25 39.988419 -122.989798 184 34920ft 441kts
05-Sep-18 17:26 39.867523 -122.986213 184 34919ft 441kts
05-Sep-18 17:27 39.764887 -122.983161 185 34913ft 443kts
05-Sep-18 17:28 39.642116 -122.979530 185 34926ft 442kts
05-Sep-18 17:29 39.519466 -122.975895 185 34926ft 442kts
05-Sep-18 17:30 39.396487 -122.972245 185 34928ft 442kts
05-Sep-18 17:31 39.273869 -122.968609 185 34927ft 442kts
05-Sep-18 17:32 39.151139 -122.964967 185 34928ft 442kts
05-Sep-18 17:33 39.029826 -122.962378 185 33687ft 432kts
05-Sep-18 17:34 38.911866 -122.959745 186 31745ft 418kts
05-Sep-18 17:35 38.798652 -122.937073 173 30047ft 423kts
05-Sep-18 17:36 38.684250 -122.902670 174 28189ft 422kts
05-Sep-18 17:37 38.571152 -122.869216 173 26301ft 414kts
05-Sep-18 17:38 38.461972 -122.837611 173 24679ft 397kts
05-Sep-18 17:39 38.356312 -122.806443 172 23022ft 384kts
05-Sep-18 17:40 38.254296 -122.776290 172 21420ft 372kts
05-Sep-18 17:41 38.154649 -122.747479 172 19664ft 364kts
05-Sep-18 17:42 38.057660 -122.719289 171 17714ft 353kts
05-Sep-18 17:43 37.963735 -122.691930 170 15827ft 342kts
05-Sep-18 17:44 37.875902 -122.653504 157 14062ft 338kts
05-Sep-18 17:45 37.802066 -122.602177 108 12877ft 335kts
05-Sep-18 17:46 37.788703 -122.494850 134 11849ft 298kts
05-Sep-18 17:47 37.718469 -122.463022 157 11222ft 267kts
05-Sep-18 17:48 37.655305 -122.410772 146 11161ft 278kts
05-Sep-18 17:49 37.590416 -122.351183 160 9298ft 284kts
05-Sep-18 17:50 37.519089 -122.309255 157 8189ft 286kts
05-Sep-18 17:51 37.447467 -122.264468 154 6628ft 292kts
05-Sep-18 17:52 37.402943 -122.193162 115 6157ft 282kts
05-Sep-18 17:53 37.363808 -122.122099 65 5823ft 248kts
05-Sep-18 17:54 37.415662 -122.091240 21 6263ft 231kts
05-Sep-18 17:55 37.470416 -122.092615 315 5062ft 208kts
05-Sep-18 17:56 37.514234 -122.138731 319 3742ft 202kts
05-Sep-18 17:57 37.541666 -122.189963 290 2927ft 158kts
05-Sep-18 17:58 37.560514 -122.239148 298 2547ft 149kts
05-Sep-18 17:59 37.579760 -122.282531 300 1312ft 141kts
05-Sep-18 18:00 37.596559 -122.321169 304 770ft 115kts
05-Sep-18 18:01 37.611527 -122.357884 296 107ft 116kts
05-Sep-18 18:02 37.618493 -122.374426 294 18ft 21kts
05-Sep-18 18:03 37.618712 -122.379267 225 28ft 10kts
05-Sep-18 18:04 37.615602 -122.381272 284 29ft 6kts
05-Sep-18 18:05 37.615563 -122.382613 226 29ft 0kts
05-Sep-18 18:06 37.615563 -122.382613 226 29ft 0kts
05-Sep-18 18:07 37.615563 -122.382613 226 29ft 0kts

Navigation Log

Ident Type
1. KPDX Airport
2. RIVRR Fix
3. COSUG Fix
4. BISLE Fix
5. MINNE Fix
6. FAMUK Fix
7. FAMUK Navaid
8. FRFLY Navaid
9. FINER Navaid
10. FOWND Navaid
11. MLBEC Fix
12. JONNE Fix
13. BGGLO Fix
14. LOZIT Fix
15. BDEGA Fix
16. CORKK Fix
17. BRIXX Fix
18. KSFO Airport